KCTZ/CTZ METAR and TAF weather

Enter ICAO airport designator
Station Type Date Time Source
KCTZ METAR 2018/12/12 23:00 UTC NOAA

KCTZ 122300Z AUTO 00000KT 10SM CLR 06/03 A3021 RMK AO2 T00620029


Station Type Date Time Source
KCTZ Decoded METAR 2018/12/12 23:00 UTC NOAA

Clinton, Sampson County Airport, NC, United States (KCTZ) 34-58-32N 078-21-53W
Dec 12, 2018 - 06:00 PM EST / 2018.12.12 2300 UTC
Wind: Calm:0
Visibility: 10 mile(s):0
Sky conditions: clear
Temperature: 43.2 F (6.2 C)
Dew Point: 37.2 F (2.9 C)
Relative Humidity: 79%
Pressure (altimeter): 30.21 in. Hg (1023 hPa)
ob: KCTZ 122300Z AUTO 00000KT 10SM CLR 06/03 A3021 RMK AO2 T00620029
cycle: 23

Station Type Date Time Source
KCTZ TAF UTC NOAA

Error!


Example: see airport list